Latest Weather Observations for Cape Grim

IDT60801

Issued at 8:05 pm EST Wednesday 23 April 2014 (issued every 30 minutes, with the page automatically refreshed every 10 minutes)

About weather observations | Map of weather stations | Latest weather observations for TAS | Other Formats
Station Details ID: 091331 Name: CAPE GRIM Lat: -40.68 Lon: 144.69 Height: 86.0 m
Data from the previous 72 hours. | See also: Recent months for locations in Tasmania
Date/Time
EST
Temp
°C
App
Temp
°C
Dew
Point
Rel
Hum
%
Delta-T
°C
Wind Press
QNH
hPa
Press
MSL
hPa
Rain
since 9 am
mm
Dir
 
Spd
km/h
Gust
km/h
Spd
kts
Gust
kts
23/08:00pm 14.8 7.7 10.8 77 2.1 NNW 39 52 21 28 1009.6 - 0.0
23/07:30pm 14.7 6.7 10.5 76 2.2 NNW 43 52 23 28 1009.9 - 0.0
23/07:06pm 14.8 8.0 10.6 76 2.2 NW 37 56 20 30 1009.9 - 0.0
23/07:00pm 14.8 8.0 10.6 76 2.2 NW 37 54 20 29 1010.0 - 0.0
23/06:30pm 14.8 8.0 10.8 77 2.1 NNW 37 52 20 28 1010.0 - 0.0
23/06:00pm 14.7 7.7 10.1 74 2.4 NW 37 50 20 27 1010.2 1010.9 0.0
23/05:50pm 14.6 7.6 9.8 73 2.5 NW 37 56 20 30 1010.3 - 0.0
23/05:30pm 14.5 7.4 9.5 72 2.6 NW 37 46 20 25 1010.3 - 0.0
23/05:00pm 14.8 8.2 10.0 73 2.5 NW 35 48 19 26 1010.4 - 0.0
23/04:30pm 14.8 8.6 10.0 73 2.5 NW 33 44 18 24 1010.6 - 0.0
23/04:00pm 15.3 9.2 9.7 69 2.9 NW 32 43 17 23 1010.9 - 0.0
23/03:30pm 14.7 8.6 8.4 66 3.2 NW 30 43 16 23 1011.1 - 0.0
23/03:00pm 15.7 9.8 9.1 65 3.4 WNW 30 39 16 21 1011.3 1012.0 0.0
23/02:30pm 15.1 9.0 8.3 64 3.4 WNW 30 41 16 22 1011.4 - 0.0
23/02:00pm 15.8 9.8 8.8 63 3.6 WNW 30 41 16 22 1011.7 - 0.0
23/01:30pm 16.1 10.6 9.1 63 3.6 WNW 28 35 15 19 1011.9 - 0.0
23/01:00pm 15.2 9.8 9.6 69 2.9 NW 28 35 15 19 1012.4 - 0.0
23/12:30pm 14.4 9.8 11.2 81 1.7 NNW 26 35 14 19 1012.9 - 0.0
23/12:00pm 14.9 9.7 10.1 73 2.5 NNW 28 35 15 19 1013.5 1014.2 0.0
23/11:30am 14.7 9.8 9.9 73 2.5 NNW 26 33 14 18 1013.9 - 0.0
23/11:00am 15.1 10.0 10.5 74 2.4 NNW 28 37 15 20 1014.2 - 0.0
23/10:30am 14.8 9.6 10.4 75 2.3 NNW 28 33 15 18 1014.4 - 0.0
23/10:00am 14.6 10.1 10.0 74 2.4 NNW 24 30 13 16 1014.3 - 0.0
23/09:30am 14.6 10.7 9.6 72 2.6 N 20 28 11 15 1014.6 - 0.0
23/09:00am 13.7 10.7 9.4 75 2.2 N 15 26 8 14 1014.8 1015.5 1.2
23/08:30am 14.2 12.1 9.6 74 2.4 N 11 15 6 8 1014.8 - 1.2
23/08:00am 13.6 10.5 8.7 72 2.5 NW 15 20 8 11 1014.9 - 1.2
23/07:30am 13.3 10.3 7.7 69 2.8 NW 13 15 7 8 1014.7 - 1.2
23/07:00am 12.8 9.8 7.9 72 2.4 WNW 13 17 7 9 1014.7 - 1.2
23/06:30am 13.2 9.9 8.1 71 2.5 WNW 15 20 8 11 1014.6 - 1.2
23/06:00am 13.0 9.7 7.9 71 2.5 W 15 19 8 10 1014.6 1015.3 1.2
23/05:30am 13.0 9.8 8.3 73 2.3 W 15 20 8 11 1014.6 - 1.2
23/05:00am 12.5 10.0 8.0 74 2.2 W 11 15 6 8 1014.7 - 1.2
23/04:30am 13.1 10.6 8.4 73 2.3 W 11 15 6 8 1014.6 - 1.2
23/04:00am 12.6 9.5 8.9 78 1.9 W 15 19 8 10 1014.7 - 1.2
23/03:30am 12.1 9.4 8.9 81 1.6 WNW 13 19 7 10 1014.6 - 1.2
23/03:00am 13.1 10.9 9.4 78 1.9 W 11 20 6 11 1014.8 1015.5 1.2
23/02:30am 12.4 11.1 9.8 84 1.3 WSW 7 11 4 6 1015.1 - 1.2
23/02:00am 13.3 11.1 9.2 76 2.1 WSW 11 20 6 11 1015.3 - 1.0
23/01:30am 13.4 10.8 9.5 77 2.0 W 13 20 7 11 1015.4 - 1.0
23/01:00am 13.6 10.6 9.3 75 2.2 W 15 24 8 13 1015.5 - 1.0
23/12:30am 13.3 10.0 9.7 79 1.9 W 17 24 9 13 1015.6 - 1.0
23/12:00am 13.1 10.4 10.5 84 1.4 W 15 20 8 11 1015.5 1016.3 1.0
 
Date/Time
EST
Temp
°C
App
Temp
°C
Dew
Point
Rel
Hum
%
Delta-T
°C
Wind Press
QNH
hPa
Press
MSL
hPa
Rain
since 9 am
mm
Dir
 
Spd
km/h
Gust
km/h
Spd
kts
Gust
kts
22/11:30pm 12.2 9.4 10.1 87 1.1 WSW 15 26 8 14 1015.6 - 1.0
22/11:00pm 13.6 9.9 9.5 76 2.1 W 19 28 10 15 1015.7 - 0.6
22/10:30pm 12.9 10.3 10.8 87 1.1 W 15 24 8 13 1015.8 - 0.6
22/10:06pm 13.1 7.5 8.8 75 2.2 W 28 54 15 29 1015.8 - 0.2
22/10:00pm 14.0 10.1 9.6 75 2.3 W 20 37 11 20 1015.8 - 0.2
22/09:30pm 13.9 10.0 9.5 75 2.3 W 20 35 11 19 1015.6 - 0.2
22/09:00pm 13.9 9.9 10.5 80 1.8 W 22 41 12 22 1015.3 1016.1 0.2
22/08:30pm 13.7 9.3 9.0 73 2.4 SW 22 41 12 22 1015.1 - 0.2
22/08:00pm 14.5 9.6 8.5 67 3.0 W 24 39 13 21 1014.9 - 0.2
22/07:30pm 14.1 9.4 9.1 72 2.6 W 24 35 13 19 1014.8 - 0.2
22/07:00pm 13.7 8.3 9.4 75 2.2 W 28 41 15 22 1014.7 - 0.0
22/06:30pm 14.1 8.5 8.9 71 2.6 W 28 37 15 20 1014.2 - 0.0
22/06:00pm 13.8 10.2 9.8 77 2.1 W 19 30 10 16 1013.9 1014.6 0.0
22/05:30pm 14.4 9.5 8.6 68 2.9 W 24 35 13 19 1013.6 - 0.0
22/05:00pm 14.5 9.4 7.8 64 3.3 W 24 37 13 20 1013.4 - 0.0
22/04:30pm 14.6 9.3 8.5 67 3.1 W 26 41 14 22 1013.2 - 0.0
22/04:00pm 14.7 10.5 8.2 65 3.3 WSW 20 43 11 23 1013.1 - 0.0
22/03:30pm 14.9 10.6 7.7 62 3.6 W 20 37 11 20 1013.0 - 0.0
22/03:00pm 14.6 10.0 8.1 65 3.3 WSW 22 41 12 22 1012.8 1013.5 0.0
22/02:30pm 14.8 10.3 8.7 67 3.1 WSW 22 41 12 22 1012.7 - 0.0
22/02:00pm 15.1 10.4 7.9 62 3.6 W 22 33 12 18 1012.5 - 0.0
22/01:30pm 15.0 9.0 7.1 59 3.9 WSW 28 44 15 24 1012.5 - 0.0
22/01:00pm 14.7 9.7 8.0 64 3.4 WSW 24 41 13 22 1012.6 - 0.0
22/12:30pm 14.3 9.7 8.3 67 3.0 WSW 22 39 12 21 1012.6 - 0.0
22/12:00pm 14.7 9.6 7.7 63 3.5 WSW 24 41 13 22 1012.5 1013.2 0.0
22/11:30am 14.6 10.2 7.6 63 3.5 WSW 20 37 11 20 1012.4 - 0.0
22/11:00am 14.7 9.7 8.2 65 3.3 SW 24 39 13 21 1012.2 - 0.0
22/10:30am 14.7 10.7 9.1 69 2.9 WSW 20 41 11 22 1011.8 - 0.0
22/10:00am 14.6 9.0 8.8 68 3.0 SW 28 48 15 26 1011.6 - 0.0
22/09:30am 14.7 9.3 9.5 71 2.7 SW 28 50 15 27 1011.3 - 0.0
22/09:22am 14.7 9.4 9.9 73 2.5 WSW 28 50 15 27 1011.2 - 0.0
22/09:00am 14.8 9.8 9.4 70 2.8 WSW 26 44 14 24 1011.0 1011.7 2.6
22/08:30am 14.7 9.8 9.9 73 2.5 WSW 26 44 14 24 1010.5 - 2.6
22/08:24am 14.6 9.4 10.4 76 2.2 WSW 28 46 15 25 1010.5 - 2.6
22/08:00am 14.5 9.9 11.1 80 1.8 WSW 26 46 14 25 1010.2 - 2.6
22/07:30am 14.9 9.2 11.1 78 2.0 W 32 50 17 27 1009.8 - 2.6
22/07:08am 15.0 9.6 12.1 83 1.6 W 32 54 17 29 1009.3 - 2.6
22/07:00am 14.9 10.3 12.2 84 1.5 W 28 43 15 23 1009.3 - 2.6
22/06:38am 15.1 10.2 12.6 85 1.4 W 30 48 16 26 1009.2 - 2.6
22/06:30am 15.1 10.7 12.8 86 1.3 W 28 39 15 21 1009.0 - 2.6
22/06:22am 14.9 10.4 12.6 86 1.3 W 28 46 15 25 1008.9 - 2.6
22/06:00am 15.6 10.7 12.4 81 1.8 W 30 43 16 23 1008.6 1009.3 2.6
22/05:30am 15.7 11.2 12.5 81 1.8 W 28 43 15 23 1008.2 - 2.6
22/05:00am 15.8 10.9 12.7 82 1.7 W 30 41 16 22 1008.1 - 2.6
22/04:30am 15.9 10.8 13.2 84 1.5 W 32 48 17 26 1007.6 - 2.6
22/04:15am 16.1 10.8 13.2 83 1.6 W 33 50 18 27 1007.5 - 2.6
22/04:09am 16.1 11.0 13.2 83 1.6 W 32 50 17 27 1007.6 - 2.6
22/04:00am 16.2 10.7 13.5 84 1.5 W 35 48 19 26 1007.3 - 2.6
22/03:58am 16.1 10.5 13.4 84 1.5 W 35 48 19 26 1007.3 - 2.6
22/03:30am 16.3 9.4 14.1 87 1.3 WNW 43 56 23 30 1007.2 - 2.6
22/03:00am 16.7 10.4 14.7 88 1.2 WNW 41 50 22 27 1007.1 1007.9 2.6
22/02:52am 16.7 10.4 14.7 88 1.2 WNW 41 52 22 28 1007.0 - 2.6
22/02:37am 16.9 10.2 14.7 87 1.3 WNW 43 56 23 30 1007.1 - 2.6
22/02:30am 16.9 10.1 14.7 87 1.3 NW 44 61 24 33 1007.1 - 2.6
22/02:01am 17.5 8.2 14.2 81 1.9 NW 56 74 30 40 1007.2 - 2.6
22/02:00am 17.5 8.0 14.2 81 1.9 NW 57 74 31 40 1007.2 - 2.6
22/01:30am 17.5 10.4 14.0 80 2.0 NW 44 63 24 34 1007.3 - 2.6
22/01:28am 17.4 10.3 13.9 80 2.0 NW 44 63 24 34 1007.3 - 2.6
22/01:00am 17.1 8.7 13.6 80 2.0 NNW 50 61 27 33 1007.4 - 2.6
22/12:30am 17.1 8.3 13.4 79 2.1 NNW 52 65 28 35 1007.4 - 2.6
22/12:00am 17.5 7.7 13.2 76 2.4 NNW 57 80 31 43 1007.3 1008.1 2.6
 
Date/Time
EST
Temp
°C
App
Temp
°C
Dew
Point
Rel
Hum
%
Delta-T
°C
Wind Press
QNH
hPa
Press
MSL
hPa
Rain
since 9 am
mm
Dir
 
Spd
km/h
Gust
km/h
Spd
kts
Gust
kts
21/11:31pm 17.3 7.6 13.0 76 2.4 NNW 56 76 30 41 1007.3 - 2.6
21/11:30pm 17.2 7.5 12.9 76 2.4 NNW 56 70 30 38 1007.3 - 2.6
21/11:00pm 17.4 6.8 13.1 76 2.4 NNW 61 76 33 41 1007.3 - 2.6
21/10:30pm 17.6 7.5 12.3 71 2.9 NNW 57 78 31 42 1007.2 - 2.6
21/10:11pm 17.6 8.5 12.5 72 2.8 NNW 52 70 28 38 1007.4 - 2.6
21/10:00pm 17.7 9.0 12.6 72 2.8 NNW 50 67 27 36 1007.4 - 2.6
21/09:30pm 17.8 8.8 12.9 73 2.8 NNW 52 70 28 38 1007.4 - 2.6
21/09:24pm 17.8 9.7 13.1 74 2.6 NNW 48 67 26 36 1007.5 - 2.6
21/09:00pm 17.5 10.4 13.4 77 2.3 N 43 56 23 30 1007.8 1008.6 2.6
21/08:30pm 17.4 10.0 12.9 75 2.5 N 44 54 24 29 1007.8 - 2.6
21/08:00pm 16.8 10.0 13.1 79 2.1 N 41 52 22 28 1008.1 - 2.6
21/07:30pm 15.8 9.9 12.4 80 1.9 NNE 35 43 19 23 1008.6 - 2.6
21/07:00pm 15.3 9.7 12.2 82 1.7 NNE 33 41 18 22 1009.0 - 2.6
21/06:30pm 14.4 9.1 12.4 88 1.1 NE 32 35 17 19 1009.2 - 2.6
21/06:00pm 13.7 8.2 11.9 89 1.0 NE 32 37 17 20 1009.6 1010.3 2.6
21/05:30pm 13.6 8.8 11.7 88 1.0 NNE 28 35 15 19 1009.8 - 2.6
21/05:08pm 13.5 8.0 11.7 89 1.0 NNE 32 41 17 22 1010.1 - 2.6
21/05:00pm 13.5 9.2 12.2 92 0.7 NE 26 37 14 20 1010.1 - 2.6
21/04:55pm 13.7 9.6 12.6 93 0.6 NE 26 33 14 18 1010.2 - 2.6
21/04:30pm 13.3 9.8 12.2 93 0.6 NE 22 28 12 15 1010.3 - 2.2
21/04:00pm 13.2 9.3 12.1 93 0.6 NNE 24 32 13 17 1010.8 - 2.2
21/03:40pm 13.2 9.4 12.3 94 0.5 NNE 24 30 13 16 1011.3 - 1.0
21/03:30pm 13.1 9.6 12.2 94 0.5 NNE 22 28 12 15 1011.2 - 0.8
21/03:00pm 11.7 7.4 10.9 95 0.4 E 24 28 13 15 1011.7 1012.4 0.8
21/02:33pm 11.5 6.8 10.6 94 0.5 E 26 30 14 16 1012.3 - 0.4
21/02:30pm 11.5 6.8 10.6 94 0.5 E 26 32 14 17 1012.3 - 0.4
21/02:00pm 10.7 4.6 9.6 93 0.6 E 32 39 17 21 1012.7 - 0.4
21/01:59pm 10.7 4.6 9.6 93 0.6 E 32 39 17 21 1012.7 - 0.4
21/01:30pm 10.1 3.8 9.0 93 0.5 E 32 37 17 20 1013.4 - 0.2
21/01:00pm 10.2 3.4 9.1 93 0.5 E 35 43 19 23 1013.7 - 0.2
21/12:30pm 9.8 2.9 8.9 94 0.4 E 35 43 19 23 1014.4 - 0.2
21/12:23pm 9.8 2.5 8.7 93 0.5 E 37 43 20 23 1014.3 - 0.2
21/12:00pm 9.7 2.7 8.5 92 0.6 E 35 43 19 23 1014.6 1015.3 0.0
21/11:30am 10.1 3.5 8.5 90 0.8 E 33 39 18 21 1014.9 - 0.0
21/11:00am 10.3 2.9 8.4 88 0.9 E 37 43 20 23 1015.4 - 0.0
21/10:30am 10.9 3.6 8.8 87 1.0 E 37 44 20 24 1015.6 - 0.0
21/10:00am 11.1 4.2 8.7 85 1.2 E 35 43 19 23 1015.5 - 0.0
21/09:30am 10.3 3.2 8.1 86 1.1 E 35 41 19 22 1016.0 - 0.0
21/09:00am 10.2 5.3 8.5 89 0.8 E 24 30 13 16 1016.8 1017.6 2.8
21/08:30am 9.2 4.9 6.8 85 1.1 E 19 20 10 11 1016.7 - 2.8
21/08:00am 9.2 5.2 6.5 83 1.3 ESE 17 20 9 11 1016.6 - 2.8
21/07:30am 9.3 4.7 6.7 84 1.2 E 20 24 11 13 1016.6 - 2.8
21/07:00am 9.3 4.3 6.4 82 1.3 E 22 26 12 14 1016.6 - 2.8
21/06:30am 9.2 4.2 6.5 83 1.3 E 22 26 12 14 1016.6 - 2.8
21/06:00am 8.9 4.2 6.0 82 1.3 E 20 22 11 12 1016.8 1017.6 2.8
21/05:30am 8.8 4.0 5.7 81 1.4 E 20 24 11 13 1016.5 - 2.8
21/05:00am 8.9 4.1 5.8 81 1.4 E 20 24 11 13 1016.5 - 2.8
21/04:30am 8.6 3.9 5.9 83 1.2 E 20 22 11 12 1016.3 - 2.8
21/04:00am 8.9 4.2 6.2 83 1.2 ESE 20 24 11 13 1016.0 - 2.8
21/03:30am 9.1 4.4 6.2 82 1.3 ESE 20 22 11 12 1016.1 - 2.8
21/03:00am 9.1 4.5 6.4 83 1.3 ESE 20 22 11 12 1016.1 1016.9 2.8
21/02:30am 9.5 4.8 6.0 79 1.6 ESE 20 20 11 11 1016.4 - 2.8
21/02:00am 9.9 5.8 6.2 78 1.7 ESE 17 20 9 11 1016.6 - 2.8
21/01:30am 10.0 5.9 6.2 77 1.8 ESE 17 20 9 11 1016.6 - 2.8
21/01:00am 10.1 6.4 6.3 77 1.8 ESE 15 17 8 9 1016.4 - 2.8
21/12:30am 10.4 7.4 6.2 75 2.0 ESE 11 13 6 7 1016.5 - 2.8
21/12:00am 11.2 9.0 6.3 72 2.3 SSE 7 11 4 6 1016.3 1017.1 2.8
 
Date/Time
EST
Temp
°C
App
Temp
°C
Dew
Point
Rel
Hum
%
Delta-T
°C
Wind Press
QNH
hPa
Press
MSL
hPa
Rain
since 9 am
mm
Dir
 
Spd
km/h
Gust
km/h
Spd
kts
Gust
kts
20/11:30pm 12.7 8.7 6.7 67 2.9 SSW 17 20 9 11 1016.2 - 2.8
20/11:00pm 12.7 8.2 6.3 65 3.1 SW 19 26 10 14 1016.4 - 2.8
20/10:30pm 12.8 8.4 6.6 66 3.0 SW 19 26 10 14 1016.4 - 2.8
20/10:00pm 12.8 7.9 6.8 67 2.9 SW 22 33 12 18 1016.2 - 2.8
20/09:30pm 13.0 6.5 6.4 64 3.2 SW 30 44 16 24 1016.1 - 2.8
20/09:00pm 13.2 6.9 7.2 67 2.9 SW 30 41 16 22 1015.9 1016.7 2.8
20/08:30pm 13.2 6.5 7.4 68 2.8 SW 32 43 17 23 1015.6 - 2.8

Other Formats:

Comma delimited format used in spreadsheet applications
http://www.bom.gov.au/fwo/IDT60801/IDT60801.95954.axf

JavaScript Object Notation format (JSON) in row-major order
http://www.bom.gov.au/fwo/IDT60801/IDT60801.95954.json